»·PEaware :: N30263 KWHP-KSBD

N30263 :: KWHP-KSBD

FLIGHT INFORMATION

Flight Status: Arrived
Operator: Privately registered:
United States
More flights under this callsign
Pilot: Magal H. (3488)
Aircraft: CESSNA 162 Skycatcher
(C162)
More flights by this aircraft type
Origin: KWHP Whiteman
United States
Destination: KSBD San Bernardino Intl
United States
More flights between these airports :: More routes between these airports
Route: KBUR KCCB L67
File this flight plan on PilotEdge
Remarks:
Altitude:
(Current/Filed)
3,500ft
Speed:
(Current/Filed)
108kts
Departed: 18-Apr-14 07:32 PM
Arrived: 18-Apr-14 08:17 PM
Distance/Time
Traveled:
59nm/0:45
Distance/Time
To Go:
Arrived

Flight Plot

Page will automatically refresh every two minutes.


Map Options




Map Legend


Flown Route
Filed Route
Departure Airport
Arrival Airport
Navaid (VOR, NDB)
Fix

Horizontal Profiles

Position Reports

Time Latitude Longitude Heading Altitude Ground
Speed
18-Apr-14 18:43 34.260138 -118.412337 139 1008ft 0kts
18-Apr-14 18:44 34.260138 -118.412337 139 1008ft 0kts
18-Apr-14 18:45 34.260138 -118.412337 139 1008ft 0kts
18-Apr-14 18:46 34.260138 -118.412337 139 1008ft 0kts
18-Apr-14 18:47 34.260138 -118.412337 139 1008ft 0kts
18-Apr-14 18:48 34.260138 -118.412337 139 1008ft 0kts
18-Apr-14 18:49 34.260138 -118.412337 139 1008ft 0kts
18-Apr-14 18:50 34.260138 -118.412337 139 1008ft 0kts
18-Apr-14 18:51 34.260138 -118.412337 139 1008ft 0kts
18-Apr-14 18:52 34.260138 -118.412337 139 1008ft 0kts
18-Apr-14 18:53 34.260138 -118.412337 139 1008ft 0kts
18-Apr-14 18:54 34.260138 -118.412337 139 1008ft 0kts
18-Apr-14 18:55 34.260138 -118.412337 139 1008ft 0kts
18-Apr-14 18:56 34.260138 -118.412337 139 1008ft 0kts
18-Apr-14 18:57 34.260138 -118.412337 139 1008ft 0kts
18-Apr-14 18:58 34.260138 -118.412337 139 1008ft 0kts
18-Apr-14 18:59 34.260138 -118.412337 139 1008ft 0kts
18-Apr-14 19:00 34.260138 -118.412337 139 1008ft 0kts
18-Apr-14 19:01 34.260138 -118.412337 139 1008ft 0kts
18-Apr-14 19:02 34.260138 -118.412337 139 1008ft 0kts
18-Apr-14 19:03 34.260138 -118.412337 139 1008ft 0kts
18-Apr-14 19:04 34.260138 -118.412337 139 1008ft 0kts
18-Apr-14 19:05 34.260138 -118.412337 139 1008ft 0kts
18-Apr-14 19:06 34.260138 -118.412337 139 1008ft 0kts
18-Apr-14 19:07 34.260138 -118.412337 139 1008ft 0kts
18-Apr-14 19:08 34.260138 -118.412337 139 1008ft 0kts
18-Apr-14 19:09 34.260138 -118.412337 139 1008ft 0kts
18-Apr-14 19:10 34.260138 -118.412337 139 1008ft 0kts
18-Apr-14 19:11 34.260138 -118.412337 139 1008ft 0kts
18-Apr-14 19:12 34.260138 -118.412337 139 1008ft 0kts
18-Apr-14 19:13 34.260138 -118.412337 139 1008ft 0kts
18-Apr-14 19:14 34.260138 -118.412337 139 1008ft 0kts
18-Apr-14 19:15 34.260138 -118.412337 139 1008ft 0kts
18-Apr-14 19:16 34.260138 -118.412337 139 1008ft 0kts
18-Apr-14 19:17 34.260138 -118.412337 139 1008ft 0kts
18-Apr-14 19:18 34.260138 -118.412337 139 1008ft 0kts
18-Apr-14 19:19 34.260138 -118.412337 139 1008ft 0kts
18-Apr-14 19:20 34.260138 -118.412337 139 1008ft 0kts
18-Apr-14 19:21 34.260138 -118.412337 139 1008ft 0kts
18-Apr-14 19:22 34.260138 -118.412337 139 1008ft 0kts
18-Apr-14 19:23 34.260138 -118.412337 139 1008ft 0kts
18-Apr-14 19:24 34.260138 -118.412337 139 1008ft 0kts
18-Apr-14 19:25 34.260138 -118.412337 139 1008ft 0kts
18-Apr-14 19:26 34.260138 -118.412337 139 1008ft 0kts
18-Apr-14 19:27 34.260138 -118.412337 139 1008ft 0kts
18-Apr-14 19:28 34.260138 -118.412337 139 1008ft 0kts
18-Apr-14 19:30 34.259276 -118.412750 319 1008ft 2kts
18-Apr-14 19:31 34.255547 -118.408949 173 1008ft 8kts
18-Apr-14 19:32 34.257438 -118.411501 320 1009ft 57kts
18-Apr-14 19:33 34.270423 -118.427577 316 1521ft 69kts
18-Apr-14 19:34 34.280026 -118.414139 114 2052ft 76kts
18-Apr-14 19:35 34.258094 -118.395922 149 2017ft 98kts
18-Apr-14 19:36 34.234691 -118.378326 144 1930ft 98kts
18-Apr-14 19:37 34.214339 -118.358033 137 2071ft 87kts
18-Apr-14 19:38 34.199547 -118.336781 119 2629ft 80kts
18-Apr-14 19:39 34.191752 -118.311686 110 3159ft 78kts
18-Apr-14 19:40 34.186718 -118.285815 106 3544ft 91kts
18-Apr-14 19:41 34.178821 -118.253668 105 3634ft 102kts
18-Apr-14 19:42 34.173457 -118.219146 101 3719ft 109kts
18-Apr-14 19:43 34.168284 -118.183981 102 3608ft 102kts
18-Apr-14 19:44 34.163630 -118.150018 102 3357ft 105kts
18-Apr-14 19:45 34.158572 -118.116834 100 3369ft 97kts
18-Apr-14 19:46 34.153762 -118.085608 94 3493ft 94kts
18-Apr-14 19:47 34.149920 -118.053539 101 3531ft 99kts
18-Apr-14 19:48 34.146162 -118.020226 95 3545ft 100kts
18-Apr-14 19:49 34.145871 -118.015973 93 3537ft 101kts
18-Apr-14 19:50 34.139226 -117.952807 98 3517ft 101kts
18-Apr-14 19:51 34.134552 -117.919212 98 3502ft 101kts
18-Apr-14 19:52 34.131410 -117.885316 94 3499ft 100kts
18-Apr-14 19:53 34.130116 -117.851513 95 3524ft 98kts
18-Apr-14 19:54 34.127248 -117.818300 98 3497ft 98kts
18-Apr-14 19:55 34.125552 -117.791054 95 3496ft 97kts
18-Apr-14 19:56 34.125188 -117.758363 92 3497ft 96kts
18-Apr-14 19:57 34.126904 -117.725873 83 3481ft 97kts
18-Apr-14 19:58 34.132970 -117.694194 76 3482ft 98kts
18-Apr-14 19:59 34.140163 -117.662569 85 3483ft 97kts
18-Apr-14 20:00 34.142795 -117.630571 85 3530ft 94kts
18-Apr-14 20:01 34.146395 -117.598834 86 3523ft 96kts
18-Apr-14 20:02 34.148702 -117.566625 87 3524ft 95kts
18-Apr-14 20:03 34.146733 -117.534824 100 3530ft 94kts
18-Apr-14 20:04 34.143803 -117.503419 97 3542ft 94kts
18-Apr-14 20:05 34.139825 -117.472232 104 3550ft 93kts
18-Apr-14 20:06 34.135933 -117.440985 96 3546ft 93kts
18-Apr-14 20:07 34.133956 -117.409496 95 3551ft 94kts
18-Apr-14 20:08 34.129841 -117.378334 105 3537ft 95kts
18-Apr-14 20:09 34.120859 -117.349998 114 3324ft 86kts
18-Apr-14 20:10 34.109944 -117.323082 111 2886ft 90kts
18-Apr-14 20:11 34.102356 -117.293887 102 2493ft 91kts
18-Apr-14 20:12 34.103520 -117.263681 66 2155ft 91kts
18-Apr-14 20:13 34.113422 -117.239858 59 2104ft 76kts
18-Apr-14 20:14 34.120936 -117.215671 79 2176ft 77kts
18-Apr-14 20:15 34.103402 -117.212868 216 1584ft 65kts
18-Apr-14 20:16 34.096108 -117.231994 258 1169ft 51kts
18-Apr-14 20:17 34.096092 -117.236274 328 1162ft 0kts
18-Apr-14 20:18 34.096092 -117.236275 328 1162ft 0kts
18-Apr-14 20:19 34.098731 -117.238102 331 1162ft 20kts
18-Apr-14 20:20 34.101248 -117.239838 329 1162ft 2kts
18-Apr-14 20:21 34.102732 -117.243649 250 1162ft 28kts
18-Apr-14 20:22 34.102371 -117.246209 264 1162ft 0kts
18-Apr-14 20:23 34.100091 -117.243794 136 1162ft 16kts
18-Apr-14 20:24 34.099944 -117.243622 135 1162ft 0kts
18-Apr-14 20:25 34.099944 -117.243622 135 1162ft 0kts

Navigation Log

Ident Type
Flight plan parsing failed, navigation log unavailable